createdAt,value
2023-01-06T00:01:17.618Z,7.89
2023-01-06T00:03:48.353Z,7.80
2023-01-06T00:06:15.484Z,7.70
2023-01-06T00:08:42.453Z,7.65
2023-01-06T00:11:14.822Z,7.61
2023-01-06T00:13:42.433Z,7.53
2023-01-06T00:16:12.472Z,7.48
2023-01-06T00:18:40.014Z,7.36
2023-01-06T00:21:07.997Z,7.37
2023-01-06T00:23:36.023Z,7.37
2023-01-06T00:26:03.991Z,7.35
2023-01-06T00:28:31.079Z,7.30
2023-01-06T00:30:59.505Z,7.30
2023-01-06T00:33:26.457Z,7.14
2023-01-06T00:35:58.465Z,7.10
2023-01-06T00:38:25.651Z,7.03
2023-01-06T00:40:52.506Z,7.03
2023-01-06T00:43:19.364Z,6.96
2023-01-06T00:45:46.359Z,6.97
2023-01-06T00:48:13.368Z,7.00
2023-01-06T00:50:40.338Z,6.99
2023-01-06T00:53:07.573Z,7.01
2023-01-06T00:55:35.677Z,6.96
2023-01-06T00:58:02.571Z,6.93
2023-01-06T01:00:29.666Z,7.03
2023-01-06T01:02:56.648Z,7.09
2023-01-06T01:05:23.698Z,7.14
2023-01-06T01:07:50.623Z,7.12
2023-01-06T01:10:17.589Z,7.07
2023-01-06T01:12:44.479Z,7.05
2023-01-06T01:15:11.555Z,6.97
2023-01-06T01:17:38.608Z,7.01
2023-01-06T01:20:06.011Z,6.91
2023-01-06T01:22:33.219Z,6.91
2023-01-06T01:25:01.018Z,6.90
2023-01-06T01:27:28.960Z,6.91
2023-01-06T01:29:55.932Z,6.90
2023-01-06T01:32:23.270Z,6.91
2023-01-06T01:34:51.315Z,6.87
2023-01-06T01:37:18.280Z,6.83
2023-01-06T01:39:45.209Z,6.72
2023-01-06T01:42:17.911Z,6.61
2023-01-06T01:45:04.431Z,6.58
2023-01-06T01:47:43.486Z,6.49
2023-01-06T01:50:17.354Z,6.45
2023-01-06T01:52:47.624Z,6.36
2023-01-06T01:55:15.561Z,6.31
2023-01-06T01:57:52.055Z,6.28
2023-01-06T02:00:19.534Z,6.26
2023-01-06T02:02:46.846Z,6.33
2023-01-06T02:05:22.193Z,6.35
2023-01-06T02:07:49.393Z,6.31
2023-01-06T02:10:22.563Z,6.32
2023-01-06T02:12:54.438Z,6.31
2023-01-06T02:15:24.588Z,6.27
2023-01-06T02:18:00.685Z,6.32
2023-01-06T02:20:34.771Z,6.18
2023-01-06T02:23:25.654Z,6.23
2023-01-06T02:26:05.610Z,6.15
2023-01-06T02:29:19.844Z,6.16
2023-01-06T02:32:00.877Z,6.15
2023-01-06T02:34:33.529Z,6.17
2023-01-06T02:37:38.016Z,6.16
2023-01-06T02:40:23.368Z,6.15
2023-01-06T02:42:50.467Z,6.16
2023-01-06T02:45:21.815Z,6.20
2023-01-06T02:47:55.376Z,6.21
2023-01-06T02:50:28.270Z,6.15
2023-01-06T02:53:03.591Z,6.14
2023-01-06T02:55:43.771Z,6.13
2023-01-06T02:58:14.159Z,6.05
2023-01-06T03:00:49.417Z,6.01
2023-01-06T03:03:23.522Z,5.99
2023-01-06T03:05:55.713Z,5.99
2023-01-06T03:08:26.338Z,5.95
2023-01-06T03:10:54.897Z,5.90
2023-01-06T03:13:45.464Z,5.91
2023-01-06T03:16:13.845Z,5.84
2023-01-06T03:18:43.568Z,5.77
2023-01-06T03:21:14.897Z,5.73
2023-01-06T03:23:45.672Z,5.70
2023-01-06T03:26:13.386Z,5.71
2023-01-06T03:28:40.583Z,5.67
2023-01-06T03:31:33.826Z,5.77
2023-01-06T03:34:25.879Z,5.71
2023-01-06T03:37:07.876Z,5.68
2023-01-06T03:39:47.363Z,5.65
2023-01-06T03:42:44.557Z,5.70
2023-01-06T03:45:36.881Z,5.65
2023-01-06T03:48:20.219Z,5.69
2023-01-06T03:50:57.605Z,5.68
2023-01-06T03:53:24.623Z,5.71
2023-01-06T03:56:01.945Z,5.66
2023-01-06T03:58:29.848Z,5.69
2023-01-06T04:00:58.225Z,5.63
2023-01-06T04:03:26.489Z,5.67
2023-01-06T04:05:54.734Z,5.65
2023-01-06T04:08:22.701Z,5.65
2023-01-06T04:10:50.588Z,5.60
2023-01-06T04:13:17.673Z,5.48
2023-01-06T04:15:44.731Z,5.36
2023-01-06T04:18:12.101Z,5.26
2023-01-06T04:20:40.978Z,5.19
2023-01-06T04:23:26.111Z,5.21
2023-01-06T04:25:53.060Z,5.23
2023-01-06T04:28:27.806Z,5.26
2023-01-06T04:30:58.763Z,5.25
2023-01-06T04:33:26.282Z,5.32
2023-01-06T04:35:55.284Z,5.28
2023-01-06T04:38:22.920Z,5.33
2023-01-06T04:40:50.090Z,5.31
2023-01-06T04:43:18.205Z,5.35
2023-01-06T04:45:45.393Z,5.39
2023-01-06T04:48:13.134Z,5.41
2023-01-06T04:50:40.597Z,5.45
2023-01-06T04:53:08.294Z,5.46
2023-01-06T04:55:39.191Z,5.43
2023-01-06T04:58:06.193Z,5.40
2023-01-06T05:00:33.151Z,5.30
2023-01-06T05:03:00.071Z,5.21
2023-01-06T05:05:26.988Z,5.30
2023-01-06T05:07:55.182Z,5.27
2023-01-06T05:10:23.427Z,5.36
2023-01-06T05:12:50.454Z,5.30
2023-01-06T05:15:17.512Z,5.24
2023-01-06T05:17:44.420Z,5.27
2023-01-06T05:20:11.888Z,5.19
2023-01-06T05:22:38.777Z,5.13
2023-01-06T05:25:06.145Z,5.05
2023-01-06T05:27:33.176Z,5.07
2023-01-06T05:30:00.053Z,5.04
2023-01-06T05:32:26.918Z,5.09
2023-01-06T05:34:53.782Z,5.16
2023-01-06T05:37:20.683Z,5.25
2023-01-06T05:39:47.622Z,5.20
2023-01-06T05:42:16.951Z,5.16
2023-01-06T05:44:43.978Z,5.05
2023-01-06T05:47:10.944Z,5.05
2023-01-06T05:49:37.921Z,4.91
2023-01-06T05:52:04.958Z,4.84
2023-01-06T05:54:31.839Z,4.84
2023-01-06T05:56:58.719Z,4.88
2023-01-06T05:59:25.602Z,4.92
2023-01-06T06:01:52.702Z,4.98
2023-01-06T06:04:19.724Z,5.05
2023-01-06T06:06:46.651Z,5.09
2023-01-06T06:09:13.550Z,5.04
2023-01-06T06:11:40.526Z,5.08
2023-01-06T06:14:09.948Z,5.00
2023-01-06T06:16:36.893Z,5.00
2023-01-06T06:19:03.810Z,4.95
2023-01-06T06:21:31.726Z,4.96
2023-01-06T06:24:00.065Z,5.04
2023-01-06T06:26:27.685Z,5.12
2023-01-06T06:28:54.778Z,5.12
2023-01-06T06:31:24.309Z,5.15
2023-01-06T06:33:52.975Z,5.18
2023-01-06T06:36:20.192Z,5.28
2023-01-06T06:38:49.071Z,5.38
2023-01-06T06:41:16.493Z,5.50
2023-01-06T06:43:43.831Z,5.58
2023-01-06T06:46:11.569Z,5.73
2023-01-06T06:48:38.841Z,5.85
2023-01-06T06:51:09.105Z,5.85
2023-01-06T06:53:37.155Z,5.94
2023-01-06T06:56:05.810Z,6.08
2023-01-06T06:58:32.912Z,6.16
2023-01-06T07:01:03.193Z,6.22
2023-01-06T07:03:30.249Z,6.34
2023-01-06T07:05:57.356Z,6.45
2023-01-06T07:08:24.296Z,6.52
2023-01-06T07:10:51.821Z,6.52
2023-01-06T07:13:18.744Z,6.58
2023-01-06T07:15:45.833Z,6.61
2023-01-06T07:18:12.841Z,6.72
2023-01-06T07:20:39.805Z,6.83
2023-01-06T07:23:06.810Z,6.99
2023-01-06T07:25:33.713Z,7.13
2023-01-06T07:28:10.426Z,7.23
2023-01-06T07:30:37.421Z,7.30
2023-01-06T07:33:04.940Z,7.42
2023-01-06T07:35:31.917Z,7.47
2023-01-06T07:38:05.797Z,7.54
2023-01-06T07:40:32.949Z,7.62
2023-01-06T07:43:08.199Z,7.70
2023-01-06T07:45:35.949Z,7.77
2023-01-06T07:48:03.547Z,7.83
2023-01-06T07:50:31.098Z,7.93
2023-01-06T07:52:59.645Z,7.98
2023-01-06T07:55:27.008Z,8.00
2023-01-06T07:57:54.540Z,8.11
2023-01-06T08:00:21.797Z,8.13
2023-01-06T08:02:49.275Z,8.17
2023-01-06T08:05:16.477Z,8.24
2023-01-06T08:07:43.625Z,8.32
2023-01-06T08:10:10.664Z,8.37
2023-01-06T08:12:37.522Z,8.44
2023-01-06T08:15:05.497Z,8.59
2023-01-06T08:17:32.684Z,8.74
2023-01-06T08:19:59.563Z,8.73
2023-01-06T08:22:26.558Z,8.73
2023-01-06T08:24:53.703Z,8.94
2023-01-06T08:27:21.065Z,8.87
2023-01-06T08:29:50.243Z,9.06
2023-01-06T08:32:17.515Z,8.94
2023-01-06T08:34:44.377Z,9.04
2023-01-06T08:37:11.328Z,9.03
2023-01-06T08:39:38.337Z,9.23
2023-01-06T08:42:05.671Z,9.38
2023-01-06T08:44:32.693Z,9.40
2023-01-06T08:46:59.860Z,9.29
2023-01-06T08:49:26.776Z,9.46
2023-01-06T08:51:53.785Z,9.38
2023-01-06T08:54:21.060Z,9.60
2023-01-06T08:56:48.156Z,9.70
2023-01-06T08:59:17.348Z,9.59
2023-01-06T09:01:45.017Z,9.54
2023-01-06T09:04:13.209Z,9.80
2023-01-06T09:06:43.445Z,9.78
2023-01-06T09:09:12.166Z,9.96
2023-01-06T09:11:44.247Z,10.15
2023-01-06T09:14:14.223Z,9.98
2023-01-06T09:16:41.548Z,10.01
2023-01-06T09:19:10.506Z,10.08
2023-01-06T09:21:38.079Z,10.27
2023-01-06T09:24:05.533Z,10.02
2023-01-06T09:26:32.436Z,10.03
2023-01-06T09:28:59.471Z,9.97
2023-01-06T09:31:27.064Z,10.27
2023-01-06T09:33:54.400Z,10.23
2023-01-06T09:36:22.226Z,10.29
2023-01-06T09:38:49.173Z,10.22
2023-01-06T09:41:29.837Z,10.16
2023-01-06T09:44:16.519Z,10.30
2023-01-06T10:18:38.722Z,10.53
2023-01-06T10:21:39.333Z,10.60
2023-01-06T10:24:18.016Z,10.83
2023-01-06T10:26:48.044Z,10.80
2023-01-06T10:29:20.772Z,10.93
2023-01-06T10:31:49.411Z,11.06
2023-01-06T10:34:27.896Z,11.24
2023-01-06T10:37:20.138Z,11.00
2023-01-06T10:39:51.459Z,10.95
2023-01-06T10:42:50.666Z,10.73
2023-01-06T10:45:17.739Z,10.93
2023-01-06T10:47:45.511Z,11.10
2023-01-06T10:50:15.299Z,10.91
2023-01-06T10:52:43.655Z,10.92
2023-01-06T10:55:29.314Z,11.00
2023-01-06T10:58:01.313Z,11.03
2023-01-06T11:00:28.434Z,11.03
2023-01-06T11:03:33.724Z,10.93
2023-01-06T11:06:01.966Z,10.99
2023-01-06T11:08:29.983Z,11.02
2023-01-06T11:10:59.980Z,11.01
2023-01-06T11:13:34.731Z,10.96
2023-01-06T11:16:07.150Z,11.12
2023-01-06T11:18:39.409Z,11.01
2023-01-06T11:21:18.183Z,11.10
2023-01-06T11:23:47.208Z,11.25
2023-01-06T11:26:16.258Z,10.88
2023-01-06T11:28:53.928Z,10.92
2023-01-06T11:31:23.594Z,10.90
2023-01-06T11:33:56.145Z,11.08
2023-01-06T11:36:25.532Z,10.90
2023-01-06T11:38:56.533Z,11.06
2023-01-06T11:41:44.373Z,11.05
2023-01-06T11:44:30.307Z,10.97
2023-01-06T11:47:18.268Z,11.03
2023-01-06T11:50:01.147Z,10.94
2023-01-06T11:52:31.455Z,10.81
2023-01-06T11:55:22.112Z,10.95
2023-01-06T11:58:17.570Z,11.05
2023-01-06T12:01:12.108Z,10.94
2023-01-06T12:03:43.977Z,10.81
2023-01-06T12:06:34.689Z,11.07
2023-01-06T12:09:30.797Z,10.77
2023-01-06T12:12:03.266Z,10.90
2023-01-06T12:14:35.676Z,11.05
2023-01-06T12:17:39.896Z,11.04
2023-01-06T12:20:23.269Z,10.83
2023-01-06T12:23:22.745Z,10.75
2023-01-06T12:25:52.733Z,10.77
2023-01-06T12:28:28.295Z,10.81
2023-01-06T12:31:05.791Z,10.81
2023-01-06T12:33:57.209Z,10.71
2023-01-06T12:36:28.844Z,10.67
2023-01-06T12:38:58.231Z,10.65
2023-01-06T12:41:35.888Z,10.66
2023-01-06T12:44:18.240Z,10.60
2023-01-06T12:46:50.702Z,10.61
2023-01-06T12:49:40.476Z,10.64
2023-01-06T12:52:17.395Z,10.67
2023-01-06T12:54:51.241Z,10.65
2023-01-06T12:57:40.906Z,10.64
2023-01-06T13:00:22.553Z,10.58
2023-01-06T13:03:19.657Z,10.60
2023-01-06T13:06:12.721Z,10.53
2023-01-06T13:08:48.379Z,10.51
2023-01-06T13:11:32.622Z,10.51
2023-01-06T13:14:17.289Z,10.55
2023-01-06T13:16:53.289Z,10.68
2023-01-06T13:19:40.595Z,10.64
2023-01-06T13:22:13.858Z,10.68
2023-01-06T13:24:59.132Z,10.62
2023-01-06T13:27:37.720Z,10.53
2023-01-06T13:30:04.536Z,10.51
2023-01-06T13:32:37.621Z,10.43
2023-01-06T13:35:22.437Z,10.40
2023-01-06T13:38:05.653Z,10.31
2023-01-06T13:40:36.643Z,10.32
2023-01-06T13:43:16.599Z,10.35
2023-01-06T13:45:48.698Z,10.29
2023-01-06T13:48:23.322Z,10.25
2023-01-06T13:50:51.101Z,10.26
2023-01-06T13:53:22.083Z,10.14
2023-01-06T13:56:09.634Z,9.95
2023-01-06T13:58:37.909Z,9.97
2023-01-06T14:01:13.426Z,9.87
2023-01-06T14:03:42.268Z,9.74
2023-01-06T14:06:24.165Z,9.63
2023-01-06T14:08:57.723Z,9.55
2023-01-06T14:11:37.973Z,9.44
2023-01-06T14:14:07.594Z,9.33
2023-01-06T14:16:47.577Z,9.22
2023-01-06T14:19:30.200Z,9.16
2023-01-06T14:22:25.499Z,9.17
2023-01-06T14:24:56.313Z,9.22
2023-01-06T14:27:49.438Z,9.24
2023-01-06T14:30:19.831Z,9.26
2023-01-06T14:32:46.691Z,9.29
2023-01-06T14:35:18.424Z,9.30
2023-01-06T14:37:50.831Z,9.24
2023-01-06T14:40:25.825Z,9.22
2023-01-06T14:42:53.433Z,9.20
2023-01-06T14:45:34.204Z,9.22
2023-01-06T14:48:11.404Z,9.19
2023-01-06T14:50:50.182Z,9.17
2023-01-06T14:53:35.436Z,9.18
2023-01-06T14:56:03.733Z,9.08
2023-01-06T14:58:38.758Z,9.05
2023-01-06T15:01:22.974Z,9.10
2023-01-06T15:03:59.786Z,9.13
2023-01-06T15:06:28.370Z,9.09
2023-01-06T15:09:10.070Z,9.34
2023-01-06T15:11:41.796Z,9.49
2023-01-06T15:14:32.868Z,9.68
2023-01-06T15:17:07.499Z,9.67
2023-01-06T15:19:35.691Z,9.38
2023-01-06T15:22:07.936Z,9.15
2023-01-06T15:24:39.533Z,8.92
2023-01-06T15:27:09.029Z,8.73
2023-01-06T15:29:36.202Z,8.71
2023-01-06T15:32:03.675Z,8.72
2023-01-06T15:34:35.996Z,8.59
2023-01-06T15:37:06.075Z,8.50
2023-01-06T15:39:35.293Z,8.45
2023-01-06T15:42:06.608Z,8.43
2023-01-06T15:44:38.657Z,8.38
2023-01-06T15:47:11.591Z,8.30
2023-01-06T15:49:49.384Z,8.17
2023-01-06T15:52:36.713Z,8.17
2023-01-06T15:55:07.278Z,8.04
2023-01-06T15:57:40.049Z,8.24
2023-01-06T16:00:08.691Z,8.14
2023-01-06T16:02:35.943Z,8.01
2023-01-06T16:05:03.042Z,8.06
2023-01-06T16:07:36.969Z,8.05
2023-01-06T16:10:04.310Z,8.07
2023-01-06T16:12:31.370Z,8.15
2023-01-06T16:14:58.318Z,8.25
2023-01-06T16:17:31.796Z,8.32
2023-01-06T16:20:00.585Z,8.33
2023-01-06T16:22:39.546Z,8.28
2023-01-06T16:25:27.561Z,8.21
2023-01-06T16:27:57.642Z,8.22
2023-01-06T16:30:27.563Z,8.26
2023-01-06T16:33:00.375Z,8.23
2023-01-06T16:35:32.594Z,8.12
2023-01-06T16:38:00.191Z,7.77
2023-01-06T16:40:28.984Z,7.93
2023-01-06T16:43:01.529Z,8.12
2023-01-06T16:45:48.479Z,8.26
2023-01-06T16:48:17.049Z,8.33
2023-01-06T16:50:54.804Z,8.34
2023-01-06T16:53:23.539Z,8.32
2023-01-06T16:55:52.617Z,8.28
2023-01-06T16:58:28.383Z,8.25
2023-01-06T17:00:58.351Z,8.24
2023-01-06T17:03:29.853Z,8.19
2023-01-06T17:05:57.293Z,8.24
2023-01-06T17:08:32.597Z,8.12
2023-01-06T17:11:02.337Z,8.03
2023-01-06T17:13:35.123Z,8.13
2023-01-06T17:16:11.268Z,8.15
2023-01-06T17:18:51.279Z,8.17
2023-01-06T17:21:35.998Z,8.12
2023-01-06T17:24:11.004Z,8.13
2023-01-06T17:26:38.604Z,8.24
2023-01-06T17:29:18.141Z,8.21
2023-01-06T17:31:47.237Z,8.21
2023-01-06T17:34:17.216Z,8.17
2023-01-06T17:36:49.510Z,8.14
2023-01-06T17:39:23.765Z,8.21
2023-01-06T17:42:01.708Z,8.17
2023-01-06T17:44:38.008Z,8.21
2023-01-06T17:47:17.401Z,8.12
2023-01-06T17:49:56.825Z,8.16
2023-01-06T17:52:24.744Z,8.19
2023-01-06T17:55:17.348Z,8.06
2023-01-06T17:57:47.106Z,8.04
2023-01-06T18:00:24.193Z,8.12
2023-01-06T18:02:57.022Z,8.14
2023-01-06T18:05:27.132Z,8.11
2023-01-06T18:08:07.165Z,8.06
2023-01-06T18:10:36.409Z,8.13
2023-01-06T18:13:24.442Z,8.09
2023-01-06T18:15:58.349Z,8.00
2023-01-06T18:18:32.769Z,8.10
2023-01-06T18:21:08.018Z,8.08
2023-01-06T18:23:35.320Z,8.05
2023-01-06T18:26:26.248Z,8.13
2023-01-06T18:28:54.751Z,8.22
2023-01-06T18:31:23.773Z,8.16
2023-01-06T18:33:51.736Z,8.11
2023-01-06T18:36:18.719Z,8.13
2023-01-06T18:38:45.798Z,8.03
2023-01-06T18:41:13.743Z,8.12
2023-01-06T18:43:43.143Z,7.98
2023-01-06T18:46:19.248Z,8.07
2023-01-06T18:48:48.251Z,8.15
2023-01-06T18:51:24.967Z,8.11
2023-01-06T18:53:52.629Z,8.11
2023-01-06T18:56:23.041Z,8.08
2023-01-06T18:58:52.735Z,8.11
2023-01-06T19:01:38.145Z,8.13
2023-01-06T19:04:19.086Z,8.09
2023-01-06T19:07:17.661Z,8.05
2023-01-06T19:09:47.754Z,8.13
2023-01-06T19:12:25.422Z,7.99
2023-01-06T19:14:54.103Z,7.36
2023-01-06T19:17:33.728Z,7.18
2023-01-06T19:20:10.474Z,7.79
2023-01-06T19:22:38.318Z,7.86
2023-01-06T19:25:28.008Z,7.73
2023-01-06T19:27:55.872Z,7.96
2023-01-06T19:30:53.680Z,7.92
2023-01-06T19:33:35.560Z,7.95
2023-01-06T19:36:11.494Z,7.97
2023-01-06T19:38:43.173Z,7.94
2023-01-06T19:41:23.765Z,7.96
2023-01-06T19:43:51.476Z,7.87
2023-01-06T19:46:30.073Z,7.98
2023-01-06T19:48:59.471Z,7.99
2023-01-06T19:51:34.710Z,8.01
2023-01-06T19:54:25.022Z,7.91
2023-01-06T19:56:53.300Z,7.86
2023-01-06T19:59:31.619Z,7.79
2023-01-06T20:02:07.305Z,7.64
2023-01-06T20:04:34.571Z,7.79
2023-01-06T20:07:04.495Z,7.76
2023-01-06T20:09:33.428Z,7.73
2023-01-06T20:12:00.955Z,7.68
2023-01-06T20:14:27.919Z,7.66
2023-01-06T20:16:55.024Z,7.60
2023-01-06T20:19:22.042Z,7.62
2023-01-06T20:21:49.172Z,7.52
2023-01-06T20:24:16.083Z,7.47
2023-01-06T20:26:43.175Z,7.36
2023-01-06T20:29:10.401Z,7.54
2023-01-06T20:31:37.794Z,6.82
2023-01-06T20:34:04.847Z,7.19
2023-01-06T20:36:32.145Z,7.40
2023-01-06T20:38:59.104Z,7.41
2023-01-06T20:41:26.034Z,7.43
2023-01-06T20:43:52.970Z,7.44
2023-01-06T20:46:19.894Z,7.23
2023-01-06T20:48:47.975Z,6.85
2023-01-06T20:51:14.920Z,7.21
2023-01-06T20:53:41.829Z,7.25
2023-01-06T20:56:08.952Z,7.16
2023-01-06T20:58:35.969Z,6.56
2023-01-06T21:01:02.955Z,6.99
2023-01-06T21:03:29.852Z,6.94
2023-01-06T21:05:56.805Z,6.94
2023-01-06T21:08:23.710Z,7.24
2023-01-06T21:10:50.581Z,7.29
2023-01-06T21:13:17.457Z,7.22
2023-01-06T21:15:44.325Z,7.31
2023-01-06T21:18:11.238Z,7.38
2023-01-06T21:20:38.126Z,7.36
2023-01-06T21:23:05.126Z,7.36
2023-01-06T21:25:32.002Z,7.47
2023-01-06T21:27:59.179Z,7.45
2023-01-06T21:30:28.451Z,7.13
2023-01-06T21:32:55.460Z,7.26
2023-01-06T21:35:22.365Z,7.10
2023-01-06T21:37:49.728Z,7.38
2023-01-06T21:40:16.682Z,7.34
2023-01-06T21:43:02.002Z,7.32
2023-01-06T21:45:29.120Z,7.42
2023-01-06T21:47:56.419Z,7.59
2023-01-06T21:50:25.989Z,7.48
2023-01-06T21:52:54.092Z,7.47
2023-01-06T21:55:21.227Z,7.56
2023-01-06T21:57:48.745Z,7.49
2023-01-06T22:00:15.980Z,7.48
2023-01-06T22:02:44.838Z,7.37
2023-01-06T22:05:11.804Z,7.46
2023-01-06T22:07:42.688Z,7.12
2023-01-06T22:10:12.457Z,7.22
2023-01-06T22:12:42.036Z,7.12
2023-01-06T22:15:09.589Z,7.19
2023-01-06T22:17:36.611Z,7.17
2023-01-06T22:20:05.547Z,7.14
2023-01-06T22:22:34.866Z,7.14
2023-01-06T22:25:03.962Z,7.09
2023-01-06T22:27:30.974Z,7.13
2023-01-06T22:29:57.902Z,7.03
2023-01-06T22:32:24.911Z,6.97
2023-01-06T22:34:51.934Z,7.03
2023-01-06T22:37:18.825Z,6.98
2023-01-06T22:39:46.841Z,7.00
2023-01-06T22:42:13.829Z,6.90
2023-01-06T22:44:40.827Z,6.88
2023-01-06T22:47:07.669Z,6.87
2023-01-06T22:49:34.491Z,6.73
2023-01-06T22:52:01.360Z,6.88
2023-01-06T22:54:28.223Z,6.80
2023-01-06T22:56:55.115Z,6.86
2023-01-06T22:59:22.033Z,5.92
2023-01-06T23:01:49.078Z,6.05
2023-01-06T23:04:16.165Z,6.04
2023-01-06T23:06:43.080Z,6.35
2023-01-06T23:09:09.946Z,6.49
2023-01-06T23:11:41.626Z,6.40
2023-01-06T23:14:10.610Z,6.36
2023-01-06T23:16:39.102Z,6.56
2023-01-06T23:19:07.011Z,6.55
2023-01-06T23:21:34.942Z,6.49
2023-01-06T23:24:02.396Z,6.44
2023-01-06T23:26:34.031Z,6.40
2023-01-06T23:29:01.521Z,6.37
2023-01-06T23:31:33.788Z,6.42
2023-01-06T23:34:04.859Z,5.87
2023-01-06T23:36:32.077Z,6.00
2023-01-06T23:39:00.677Z,6.07
2023-01-06T23:41:29.791Z,6.21
2023-01-06T23:43:57.490Z,6.23
2023-01-06T23:46:27.585Z,6.26
2023-01-06T23:48:55.350Z,6.27
2023-01-06T23:51:23.734Z,6.36
2023-01-06T23:53:51.270Z,6.31
2023-01-06T23:56:22.528Z,6.26
2023-01-06T23:58:52.554Z,6.36
